createdAt,value
2017-05-26T00:00:14.344Z,13.3
2017-05-26T00:02:28.302Z,13.2
2017-05-26T00:03:30.828Z,13.4
2017-05-26T00:04:33.309Z,13.5
2017-05-26T00:05:35.848Z,13.4
2017-05-26T00:06:38.367Z,13.5
2017-05-26T00:07:40.873Z,13.2
2017-05-26T00:08:43.363Z,13
2017-05-26T00:09:45.852Z,13.2
2017-05-26T00:10:48.356Z,12.9
2017-05-26T00:11:50.832Z,13.1
2017-05-26T00:12:53.378Z,13.3
2017-05-26T00:13:55.871Z,13.2
2017-05-26T00:14:58.384Z,13.2
2017-05-26T00:16:00.887Z,13.4
2017-05-26T00:17:03.336Z,13.3
2017-05-26T00:18:05.873Z,13.4
2017-05-26T00:19:08.329Z,13.4
2017-05-26T00:20:10.889Z,13.2
2017-05-26T00:21:13.374Z,13.5
2017-05-26T00:22:15.874Z,13.5
2017-05-26T00:23:18.508Z,13.5
2017-05-26T00:24:21.098Z,13.3
2017-05-26T00:25:23.739Z,13.2
2017-05-26T00:26:26.338Z,13
2017-05-26T00:27:28.815Z,13.1
2017-05-26T00:28:31.270Z,13
2017-05-26T00:29:33.744Z,13.2
2017-05-26T00:30:37.240Z,13.1
2017-05-26T00:31:39.684Z,13.1
2017-05-26T00:32:42.150Z,13.1
2017-05-26T00:33:44.666Z,13.3
2017-05-26T00:34:47.152Z,13.3
2017-05-26T00:35:49.644Z,13.1
2017-05-26T00:36:52.166Z,13.1
2017-05-26T00:37:54.614Z,13.3
2017-05-26T00:38:57.016Z,13.3
2017-05-26T00:39:59.574Z,13.2
2017-05-26T00:41:02.021Z,13.2
2017-05-26T00:42:04.518Z,13.2
2017-05-26T00:43:07.039Z,13.2
2017-05-26T00:44:09.557Z,13.4
2017-05-26T00:45:12.113Z,13.6
2017-05-26T00:46:14.626Z,13.8
2017-05-26T00:47:17.095Z,13.9
2017-05-26T00:48:19.676Z,13.8
2017-05-26T00:49:22.196Z,13.7
2017-05-26T00:50:24.884Z,13.8
2017-05-26T00:51:27.566Z,13.7
2017-05-26T00:52:30.001Z,14
2017-05-26T00:53:32.539Z,13.9
2017-05-26T00:54:35.021Z,13.9
2017-05-26T00:55:37.528Z,14
2017-05-26T00:56:39.987Z,14.1
2017-05-26T00:57:42.440Z,14
2017-05-26T00:58:44.884Z,14
2017-05-26T00:59:47.378Z,14.1
2017-05-26T01:00:49.848Z,14.1
2017-05-26T01:01:52.353Z,14.1
2017-05-26T01:02:54.792Z,14.1
2017-05-26T01:03:57.287Z,14.1
2017-05-26T01:04:59.803Z,14.3
2017-05-26T01:06:02.245Z,14.3
2017-05-26T01:07:04.686Z,14.4
2017-05-26T01:08:07.242Z,14.5
2017-05-26T01:09:09.672Z,14.5
2017-05-26T01:10:12.113Z,14.2
2017-05-26T01:11:15.701Z,14.1
2017-05-26T01:12:18.248Z,14.3
2017-05-26T01:13:20.910Z,14.6
2017-05-26T01:14:23.439Z,14.6
2017-05-26T01:15:26.126Z,14.4
2017-05-26T01:16:28.695Z,14.4
2017-05-26T01:17:31.276Z,14.6
2017-05-26T01:18:34.682Z,14.7
2017-05-26T01:19:37.177Z,14.8
2017-05-26T01:20:39.645Z,14.9
2017-05-26T01:21:42.443Z,14.9
2017-05-26T01:22:44.870Z,14.8
2017-05-26T01:23:47.305Z,14.7
2017-05-26T01:24:49.768Z,14.8
2017-05-26T01:25:52.195Z,15
2017-05-26T01:26:54.838Z,15
2017-05-26T01:27:57.339Z,15.1
2017-05-26T01:28:59.807Z,15
2017-05-26T01:30:02.474Z,14.9
2017-05-26T01:31:07.183Z,14.9
2017-05-26T01:32:09.696Z,15
2017-05-26T01:33:12.178Z,14.9
2017-05-26T01:34:15.314Z,15
2017-05-26T01:35:17.932Z,15.1
2017-05-26T01:36:20.479Z,14.8
2017-05-26T01:37:23.014Z,14.7
2017-05-26T01:38:25.562Z,14.6
2017-05-26T01:39:28.132Z,14.8
2017-05-26T01:40:30.677Z,15
2017-05-26T01:41:33.128Z,14.9
2017-05-26T01:42:35.569Z,14.8
2017-05-26T01:43:38.049Z,15
2017-05-26T01:44:40.475Z,15
2017-05-26T01:45:43.015Z,15
2017-05-26T01:46:46.452Z,14.5
2017-05-26T01:47:48.953Z,14.6
2017-05-26T01:48:51.460Z,14.6
2017-05-26T01:49:53.940Z,14.6
2017-05-26T01:50:56.414Z,14.8
2017-05-26T01:51:59.246Z,15
2017-05-26T01:53:01.705Z,15.1
2017-05-26T01:54:04.162Z,15.1
2017-05-26T01:55:06.857Z,15
2017-05-26T01:56:09.265Z,15.1
2017-05-26T01:57:12.015Z,14.9
2017-05-26T01:58:14.577Z,15
2017-05-26T01:59:17.048Z,15.1
2017-05-26T02:00:19.623Z,14.9
2017-05-26T02:01:22.199Z,15
2017-05-26T02:02:24.672Z,15.1
2017-05-26T02:03:27.117Z,15
2017-05-26T02:04:29.556Z,15.1
2017-05-26T02:05:32.008Z,15.1
2017-05-26T02:06:34.541Z,15.1
2017-05-26T02:07:36.959Z,15
2017-05-26T02:08:39.424Z,15.1
2017-05-26T02:09:41.841Z,15.2
2017-05-26T02:10:44.305Z,15.2
2017-05-26T02:11:46.723Z,15.3
2017-05-26T02:12:49.129Z,15.3
2017-05-26T02:13:51.598Z,15.2
2017-05-26T02:14:54.244Z,15.1
2017-05-26T02:15:56.687Z,15.1
2017-05-26T02:16:59.688Z,15.1
2017-05-26T02:18:02.227Z,15.2
2017-05-26T02:19:04.958Z,15.4
2017-05-26T02:20:07.681Z,15.3
2017-05-26T02:21:10.567Z,15.3
2017-05-26T02:22:13.340Z,15.4
2017-05-26T02:23:15.870Z,15.2
2017-05-26T02:24:18.394Z,15
2017-05-26T02:25:21.701Z,15
2017-05-26T02:26:24.452Z,15.2
2017-05-26T02:27:27.048Z,15.3
2017-05-26T02:28:30.385Z,15.3
2017-05-26T02:29:32.850Z,15.3
2017-05-26T02:30:35.339Z,15.3
2017-05-26T02:31:37.830Z,15.1
2017-05-26T02:32:40.304Z,15
2017-05-26T02:33:42.847Z,15.2
2017-05-26T02:34:45.298Z,15.2
2017-05-26T02:35:47.743Z,15.2
2017-05-26T02:36:50.179Z,15.2
2017-05-26T02:37:52.642Z,15.2
2017-05-26T02:38:55.252Z,14.9
2017-05-26T02:39:57.755Z,14.9
2017-05-26T02:41:00.765Z,15
2017-05-26T02:42:03.231Z,15
2017-05-26T02:43:05.716Z,15.1
2017-05-26T02:44:08.199Z,15.2
2017-05-26T02:45:10.791Z,14.9
2017-05-26T02:46:13.353Z,14.7
2017-05-26T02:47:16.151Z,14.9
2017-05-26T02:48:18.650Z,15
2017-05-26T02:49:21.153Z,15.1
2017-05-26T02:50:23.692Z,15.2
2017-05-26T02:51:26.196Z,15
2017-05-26T02:52:28.779Z,15
2017-05-26T02:53:31.389Z,14.9
2017-05-26T02:54:33.846Z,14.8
2017-05-26T02:55:36.305Z,14.8
2017-05-26T02:56:38.777Z,14.8
2017-05-26T02:57:41.291Z,14.9
2017-05-26T02:58:43.717Z,14.8
2017-05-26T02:59:46.180Z,15
2017-05-26T03:00:48.636Z,15.1
2017-05-26T03:01:51.075Z,15
2017-05-26T03:02:53.519Z,15.1
2017-05-26T03:03:55.934Z,14.9
2017-05-26T03:04:59.425Z,15
2017-05-26T03:06:01.983Z,15.1
2017-05-26T03:07:04.474Z,15
2017-05-26T03:08:06.894Z,15.1
2017-05-26T03:09:09.351Z,15.2
2017-05-26T03:10:11.936Z,15.1
2017-05-26T03:11:14.473Z,15.1
2017-05-26T03:12:16.968Z,15.2
2017-05-26T03:13:20.120Z,15.1
2017-05-26T03:14:22.727Z,15.2
2017-05-26T03:15:26.285Z,15.2
2017-05-26T03:16:28.759Z,15.1
2017-05-26T03:17:31.211Z,15.2
2017-05-26T03:18:34.627Z,15.3
2017-05-26T03:19:37.124Z,15.2
2017-05-26T03:20:39.546Z,15.1
2017-05-26T03:21:42.012Z,15.1
2017-05-26T03:22:44.448Z,15
2017-05-26T03:23:46.865Z,15
2017-05-26T03:24:49.377Z,15.2
2017-05-26T03:25:51.815Z,15.3
2017-05-26T03:26:54.324Z,15.3
2017-05-26T03:27:56.813Z,15.2
2017-05-26T03:28:59.281Z,15.2
2017-05-26T03:30:01.894Z,15.2
2017-05-26T03:31:07.499Z,15.4
2017-05-26T03:32:10.045Z,15.3
2017-05-26T03:33:12.582Z,15.2
2017-05-26T03:34:15.054Z,15
2017-05-26T03:35:17.544Z,15
2017-05-26T03:36:20.309Z,15.1
2017-05-26T03:37:22.807Z,15
2017-05-26T03:38:25.342Z,15
2017-05-26T03:39:27.776Z,15
2017-05-26T03:40:30.321Z,15.1
2017-05-26T03:41:33.555Z,15.1
2017-05-26T03:42:36.055Z,14.9
2017-05-26T03:43:38.486Z,15
2017-05-26T03:44:40.967Z,15
2017-05-26T03:45:43.382Z,15.1
2017-05-26T03:46:46.846Z,15.3
2017-05-26T03:47:49.383Z,15.3
2017-05-26T03:48:51.849Z,15.3
2017-05-26T03:49:54.338Z,15.4
2017-05-26T03:50:56.830Z,15.3
2017-05-26T03:51:59.422Z,15.2
2017-05-26T03:53:01.871Z,15.2
2017-05-26T03:54:04.380Z,15.2
2017-05-26T03:55:06.949Z,15.1
2017-05-26T03:56:10.588Z,15.1
2017-05-26T03:57:13.044Z,15.1
2017-05-26T03:58:16.121Z,15.1
2017-05-26T03:59:21.396Z,15
2017-05-26T04:00:23.982Z,15.1
2017-05-26T04:01:26.454Z,15.2
2017-05-26T04:02:29.018Z,15.3
2017-05-26T04:03:31.713Z,15.1
2017-05-26T04:04:34.371Z,15
2017-05-26T04:05:36.946Z,15.1
2017-05-26T04:06:39.551Z,15.3
2017-05-26T04:07:42.017Z,15.3
2017-05-26T04:08:44.480Z,15.3
2017-05-26T04:09:46.932Z,15.2
2017-05-26T04:10:49.468Z,15.2
2017-05-26T04:11:51.890Z,15.3
2017-05-26T04:12:54.360Z,15.2
2017-05-26T04:13:56.754Z,15.2
2017-05-26T04:14:59.251Z,15.1
2017-05-26T04:16:01.781Z,15.3
2017-05-26T04:17:04.374Z,15.2
2017-05-26T04:18:08.076Z,15.1
2017-05-26T04:19:10.783Z,15.1
2017-05-26T04:20:13.279Z,15.2
2017-05-26T04:21:15.819Z,15.1
2017-05-26T04:22:18.570Z,15
2017-05-26T04:23:21.151Z,15
2017-05-26T04:24:24.269Z,15.1
2017-05-26T04:25:26.906Z,15
2017-05-26T04:26:29.535Z,15
2017-05-26T04:27:31.974Z,15.1
2017-05-26T04:28:34.518Z,15.2
2017-05-26T04:29:37.078Z,15.3
2017-05-26T04:30:40.107Z,15.2
2017-05-26T04:31:42.697Z,15.4
2017-05-26T04:32:46.014Z,15.4
2017-05-26T04:33:48.502Z,15.4
2017-05-26T04:34:51.182Z,15.3
2017-05-26T04:35:53.743Z,15.4
2017-05-26T04:36:56.197Z,15.4
2017-05-26T04:37:58.674Z,15.5
2017-05-26T04:39:01.279Z,15.5
2017-05-26T04:40:06.789Z,15.5
2017-05-26T04:41:09.525Z,15.6
2017-05-26T04:42:11.944Z,15.5
2017-05-26T04:43:14.424Z,15.6
2017-05-26T04:44:16.993Z,15.5
2017-05-26T04:45:20.500Z,15.5
2017-05-26T04:46:23.166Z,15.6
2017-05-26T04:47:26.741Z,15.6
2017-05-26T04:48:29.255Z,15.5
2017-05-26T04:49:31.958Z,15.5
2017-05-26T04:50:34.579Z,15.6
2017-05-26T04:51:37.097Z,15.6
2017-05-26T04:52:39.618Z,15.6
2017-05-26T04:53:42.107Z,15.8
2017-05-26T04:54:44.629Z,15.8
2017-05-26T04:55:47.144Z,15.9
2017-05-26T04:56:49.634Z,15.9
2017-05-26T04:57:52.106Z,15.8
2017-05-26T04:58:54.619Z,15.8
2017-05-26T04:59:57.106Z,15.6
2017-05-26T05:00:59.649Z,15.6
2017-05-26T05:02:04.349Z,15.4
2017-05-26T05:03:06.846Z,15.4
2017-05-26T05:04:09.448Z,15.6
2017-05-26T05:05:12.047Z,15.8
2017-05-26T05:06:15.193Z,15.9
2017-05-26T05:07:17.755Z,15.9
2017-05-26T05:08:21.288Z,16
2017-05-26T05:09:23.807Z,16.1
2017-05-26T05:10:26.484Z,16
2017-05-26T05:11:29.188Z,16.2
2017-05-26T05:12:31.814Z,16.1
2017-05-26T05:13:34.992Z,16
2017-05-26T05:14:37.662Z,16
2017-05-26T05:15:40.309Z,16
2017-05-26T05:16:42.844Z,16.1
2017-05-26T05:17:45.347Z,16.1
2017-05-26T05:18:47.856Z,16.2
2017-05-26T05:19:50.388Z,16.1
2017-05-26T05:20:52.863Z,16.2
2017-05-26T05:21:55.406Z,16.5
2017-05-26T05:22:57.934Z,16.5
2017-05-26T05:24:00.462Z,16.5
2017-05-26T05:25:07.405Z,16.5
2017-05-26T05:26:11.800Z,16.4
2017-05-26T05:27:14.337Z,16.3
2017-05-26T05:28:16.864Z,16.5
2017-05-26T05:29:19.629Z,16.8
2017-05-26T05:30:22.868Z,17.1
2017-05-26T05:31:25.454Z,17.2
2017-05-26T05:32:28.086Z,17.4
2017-05-26T05:33:30.717Z,17.4
2017-05-26T05:34:33.444Z,17.4
2017-05-26T05:35:36.178Z,17.4
2017-05-26T05:36:42.012Z,17.3
2017-05-26T05:37:44.525Z,17.4
2017-05-26T05:38:47.010Z,17.6
2017-05-26T05:39:49.510Z,17.8
2017-05-26T05:40:52.720Z,17.9
2017-05-26T05:41:55.188Z,18.1
2017-05-26T05:42:57.683Z,18.2
2017-05-26T05:44:00.192Z,18.1
2017-05-26T05:45:05.477Z,18.3
2017-05-26T05:46:09.556Z,18.4
2017-05-26T05:47:12.242Z,18.8
2017-05-26T05:48:14.833Z,18.9
2017-05-26T05:49:17.363Z,19.3
2017-05-26T05:50:20.894Z,19.4
2017-05-26T05:51:23.598Z,19.7
2017-05-26T05:52:26.142Z,19.8
2017-05-26T05:53:28.733Z,19.7
2017-05-26T05:54:31.526Z,19.6
2017-05-26T05:55:34.321Z,19.7
2017-05-26T05:56:36.950Z,19.6
2017-05-26T05:57:39.445Z,19.8
2017-05-26T05:58:42.165Z,20
2017-05-26T05:59:44.631Z,20.5
2017-05-26T06:00:48.677Z,20.1
2017-05-26T06:01:51.275Z,19.9
2017-05-26T06:02:55.339Z,19.4
2017-05-26T06:03:57.903Z,19.2
2017-05-26T06:05:00.505Z,18.9
2017-05-26T06:06:04.572Z,19
2017-05-26T06:07:08.479Z,19.2
2017-05-26T06:08:12.191Z,19.4
2017-05-26T06:09:14.718Z,19.1
2017-05-26T06:10:17.225Z,18.9
2017-05-26T06:11:19.883Z,18.8
2017-05-26T06:12:22.506Z,18.7
2017-05-26T06:13:25.046Z,18.6
2017-05-26T06:14:28.133Z,18.6
2017-05-26T06:15:30.794Z,18.8
2017-05-26T06:16:33.393Z,18.9
2017-05-26T06:17:36.028Z,19.4
2017-05-26T06:18:39.315Z,19.8
2017-05-26T06:19:41.876Z,20
2017-05-26T06:20:44.399Z,20.1
2017-05-26T06:21:46.858Z,20.3
2017-05-26T06:22:49.392Z,20.5
2017-05-26T06:23:51.967Z,20.8
2017-05-26T06:24:54.529Z,21
2017-05-26T06:25:57.681Z,21.1
2017-05-26T06:27:00.362Z,21
2017-05-26T06:28:06.512Z,20.6
2017-05-26T06:29:10.090Z,20.9
2017-05-26T06:30:13.498Z,21.2
2017-05-26T06:31:17.114Z,21.1
2017-05-26T06:32:19.694Z,20.3
2017-05-26T06:33:23.273Z,19.7
2017-05-26T06:34:25.944Z,19.2
2017-05-26T06:35:28.537Z,19.1
2017-05-26T06:36:31.075Z,19.1
2017-05-26T06:37:43.260Z,19.6
2017-05-26T06:38:45.860Z,20.5
2017-05-26T06:39:49.027Z,21.2
2017-05-26T06:40:52.963Z,19.9
2017-05-26T06:41:56.154Z,20
2017-05-26T06:42:58.699Z,20
2017-05-26T06:44:01.188Z,19.8
2017-05-26T06:45:06.614Z,19.5
2017-05-26T06:46:11.171Z,19.2
2017-05-26T06:47:13.777Z,19.3
2017-05-26T06:48:16.436Z,19.4
2017-05-26T06:49:19.067Z,19.7
2017-05-26T06:50:21.692Z,20.3
2017-05-26T06:51:25.027Z,20.9
2017-05-26T06:52:27.664Z,20
2017-05-26T06:53:30.406Z,19.7
2017-05-26T06:54:35.870Z,19.8
2017-05-26T06:55:38.544Z,19.5
2017-05-26T06:56:41.162Z,19.4
2017-05-26T06:57:43.790Z,19.8
2017-05-26T06:58:46.813Z,20
2017-05-26T06:59:49.323Z,20.9
2017-05-26T07:00:52.015Z,21.2
2017-05-26T07:01:55.892Z,21.8
2017-05-26T07:02:58.458Z,22.3
2017-05-26T07:04:02.038Z,22.7
2017-05-26T07:05:11.339Z,23.1
2017-05-26T07:06:16.875Z,23.2
2017-05-26T07:07:19.470Z,22.9
2017-05-26T07:08:22.157Z,23.1
2017-05-26T07:09:26.113Z,23.8
2017-05-26T07:11:42.624Z,22.9
2017-05-26T07:12:45.242Z,23.1
2017-05-26T07:13:47.861Z,23.3
2017-05-26T07:14:50.526Z,23
2017-05-26T07:15:53.037Z,22.8
2017-05-26T07:16:55.612Z,23.1
2017-05-26T07:17:58.162Z,23.5
2017-05-26T07:19:00.783Z,24.6
2017-05-26T07:20:05.632Z,24.2
2017-05-26T07:21:18.600Z,24.3
2017-05-26T07:22:21.228Z,24.1
2017-05-26T07:23:23.966Z,23.5
2017-05-26T07:24:27.379Z,23.8
2017-05-26T07:25:30.227Z,23.8
2017-05-26T07:26:33.013Z,24.1
2017-05-26T07:27:36.941Z,24.3
2017-05-26T07:28:39.548Z,24.5
2017-05-26T07:29:42.273Z,24.7
2017-05-26T07:30:45.028Z,24.4
2017-05-26T07:31:48.408Z,24.3
2017-05-26T07:32:51.761Z,23.9
2017-05-26T07:33:54.470Z,23.9
2017-05-26T07:34:57.099Z,23.6
2017-05-26T07:36:00.905Z,23.7
2017-05-26T07:37:07.739Z,23.6
2017-05-26T07:38:11.630Z,23.7
2017-05-26T07:39:14.867Z,24.2
2017-05-26T07:40:19.482Z,24.5
2017-05-26T07:41:22.191Z,24.2
2017-05-26T07:42:25.535Z,23.1
2017-05-26T07:43:28.208Z,23.4
2017-05-26T07:44:33.267Z,24.5
2017-05-26T07:45:36.607Z,25.3
2017-05-26T07:46:40.699Z,25.2
2017-05-26T07:47:44.040Z,25.2
2017-05-26T07:48:46.617Z,25.2
2017-05-26T07:49:49.280Z,24.8
2017-05-26T07:50:52.105Z,24.5
2017-05-26T07:51:54.800Z,25
2017-05-26T07:52:58.025Z,25.4
2017-05-26T07:54:00.819Z,25.4
2017-05-26T07:56:14.238Z,25.5
2017-05-26T07:57:18.015Z,25.5
2017-05-26T07:58:20.842Z,25.8
2017-05-26T07:59:23.545Z,25.9
2017-05-26T08:00:26.828Z,26
2017-05-26T08:01:33.213Z,26.5
2017-05-26T08:02:36.711Z,26.6
2017-05-26T08:03:42.570Z,26
2017-05-26T08:04:45.376Z,25.6
2017-05-26T08:05:52.560Z,25.1
2017-05-26T08:06:57.564Z,24.7
2017-05-26T08:08:00.269Z,25.3
2017-05-26T08:09:05.024Z,25.3
2017-05-26T08:10:14.786Z,26
2017-05-26T08:11:18.469Z,26.3
2017-05-26T08:12:21.978Z,26.6
2017-05-26T08:13:25.318Z,26.5
2017-05-26T08:14:30.070Z,27.2
2017-05-26T08:15:32.974Z,27
2017-05-26T08:16:38.268Z,26.2
2017-05-26T08:17:41.969Z,26.1
2017-05-26T08:18:44.757Z,26.1
2017-05-26T08:19:47.491Z,25.6
2017-05-26T08:20:51.161Z,26.1
2017-05-26T08:21:55.083Z,26.5
2017-05-26T08:22:57.702Z,25.3
2017-05-26T08:24:00.289Z,25.6
2017-05-26T08:25:07.531Z,25.7
2017-05-26T08:26:13.568Z,26.2
2017-05-26T08:27:19.757Z,26.4
2017-05-26T08:28:24.110Z,26.5
2017-05-26T08:29:26.870Z,26.4
2017-05-26T08:30:30.591Z,26.6
2017-05-26T08:31:34.631Z,26.9
2017-05-26T08:32:38.138Z,27
2017-05-26T08:33:45.313Z,27.2
2017-05-26T08:34:48.557Z,27.1
2017-05-26T08:35:51.561Z,27.2
2017-05-26T08:36:54.326Z,27.8
2017-05-26T08:37:57.174Z,27.8
2017-05-26T08:39:04.732Z,27.5
2017-05-26T08:40:11.275Z,27.1
2017-05-26T08:41:20.978Z,27.2
2017-05-26T08:42:27.519Z,26.9
2017-05-26T08:43:31.190Z,26.6
2017-05-26T08:44:34.074Z,26.2
2017-05-26T08:45:38.691Z,26.5
2017-05-26T08:46:43.933Z,26.5
2017-05-26T08:47:47.398Z,27
2017-05-26T08:48:50.222Z,26.4
2017-05-26T08:49:52.913Z,27
2017-05-26T08:50:56.916Z,28
2017-05-26T08:52:01.026Z,27.6
2017-05-26T08:53:04.539Z,28
2017-05-26T08:54:09.539Z,28.8
2017-05-26T08:55:15.274Z,28.8
2017-05-26T08:56:21.167Z,29.4
2017-05-26T08:57:25.917Z,29.1
2017-05-26T08:58:29.512Z,28.7
2017-05-26T08:59:34.048Z,28.8
2017-05-26T09:00:42.551Z,28.8
2017-05-26T09:01:52.879Z,28.4
2017-05-26T09:02:57.592Z,29
2017-05-26T09:04:00.932Z,28.8
2017-05-26T09:06:17.152Z,28.7
2017-05-26T09:07:20.422Z,28.7
2017-05-26T09:08:23.290Z,29.3
2017-05-26T09:09:28.866Z,28.4
2017-05-26T09:10:32.686Z,28.9
2017-05-26T09:11:36.064Z,29.1
2017-05-26T09:12:39.534Z,29.6
2017-05-26T09:13:42.428Z,29.7
2017-05-26T09:14:46.249Z,29.1
2017-05-26T09:15:51.987Z,29.1
2017-05-26T09:16:57.380Z,29.3
2017-05-26T09:18:09.423Z,29.6
2017-05-26T09:19:12.802Z,29.6
2017-05-26T09:20:16.421Z,29.6
2017-05-26T09:21:21.579Z,29.5
2017-05-26T09:22:24.863Z,29.6
2017-05-26T09:23:28.254Z,29.6
2017-05-26T09:24:32.422Z,29.1
2017-05-26T09:25:36.965Z,29.4
2017-05-26T09:26:41.689Z,30.3
2017-05-26T09:27:45.011Z,29.8
2017-05-26T09:28:48.417Z,29.6
2017-05-26T09:29:53.506Z,29.3
2017-05-26T09:30:57.650Z,29.5
2017-05-26T09:32:01.370Z,30.3
2017-05-26T09:33:12.468Z,30.9
2017-05-26T09:34:15.760Z,30.4
2017-05-26T09:35:23.413Z,29.6
2017-05-26T09:36:31.919Z,30
2017-05-26T09:37:39.673Z,29.8
2017-05-26T09:38:44.144Z,30.4
2017-05-26T09:39:50.981Z,30.7
2017-05-26T09:40:57.159Z,31.1
2017-05-26T09:42:00.541Z,31.4
2017-05-26T09:43:05.655Z,32
2017-05-26T09:44:09.106Z,31.8
2017-05-26T09:45:13.021Z,31.1
2017-05-26T09:46:18.098Z,30.5
2017-05-26T09:47:24.033Z,30.1
2017-05-26T09:49:39.573Z,29.4
2017-05-26T09:50:43.353Z,30.5
2017-05-26T09:51:50.055Z,31
2017-05-26T09:52:59.385Z,31.4
2017-05-26T09:54:08.938Z,31.7
2017-05-26T09:55:17.214Z,32
2017-05-26T09:57:39.409Z,31.3
2017-05-26T09:58:43.000Z,31.1
2017-05-26T09:59:49.125Z,31.9
2017-05-26T10:00:58.710Z,31
2017-05-26T10:02:11.147Z,32.2
2017-05-26T10:03:14.118Z,32.3
2017-05-26T10:04:18.646Z,31.7
2017-05-26T10:05:23.773Z,31.8
2017-05-26T10:06:35.379Z,32.6
2017-05-26T10:07:44.250Z,32.1
2017-05-26T10:08:47.049Z,30.5
2017-05-26T10:09:53.581Z,30.1
2017-05-26T10:10:58.748Z,30.4
2017-05-26T10:12:03.427Z,30.9
2017-05-26T10:13:11.929Z,31.3
2017-05-26T10:14:15.698Z,31.2
2017-05-26T10:15:25.549Z,30
2017-05-26T10:17:46.365Z,29.6
2017-05-26T10:18:50.081Z,28.1
2017-05-26T10:19:54.096Z,27.5
2017-05-26T10:20:57.521Z,27.3
2017-05-26T10:22:00.480Z,27.7
2017-05-26T10:23:03.212Z,27.5
2017-05-26T10:24:10.482Z,27.5
2017-05-26T10:25:16.327Z,27.7
2017-05-26T10:26:20.386Z,28.2
2017-05-26T10:27:26.237Z,28.4
2017-05-26T10:28:30.211Z,28.6
2017-05-26T10:29:33.186Z,28.7
2017-05-26T10:30:40.813Z,28.7
2017-05-26T10:31:45.583Z,28.6
2017-05-26T10:32:51.446Z,28.2
2017-05-26T10:33:59.700Z,28.6
2017-05-26T10:36:16.678Z,28.3
2017-05-26T10:37:21.343Z,28.3
2017-05-26T10:38:27.308Z,28.4
2017-05-26T10:39:32.582Z,28.2
2017-05-26T10:40:36.446Z,28
2017-05-26T10:41:40.294Z,27.8
2017-05-26T10:42:43.004Z,28.1
2017-05-26T10:43:48.712Z,28.2
2017-05-26T10:44:51.650Z,28.3
2017-05-26T10:47:02.202Z,28.5
2017-05-26T10:48:10.494Z,28.1
2017-05-26T10:49:14.669Z,28.3
2017-05-26T10:50:23.408Z,27.9
2017-05-26T10:51:27.298Z,27.5
2017-05-26T10:52:30.200Z,27.7
2017-05-26T10:53:35.608Z,27.8
2017-05-26T10:54:39.387Z,27.8
2017-05-26T10:55:45.252Z,28.6
2017-05-26T10:56:49.232Z,28.1
2017-05-26T10:57:52.709Z,27.4
2017-05-26T10:58:55.537Z,28
2017-05-26T10:59:58.575Z,28
2017-05-26T11:01:01.609Z,28.6
2017-05-26T11:02:10.586Z,28
2017-05-26T11:03:14.952Z,28
2017-05-26T11:04:21.065Z,28.5
2017-05-26T11:05:27.669Z,28.4
2017-05-26T11:06:42.961Z,28.1
2017-05-26T11:07:49.846Z,28.3
2017-05-26T11:08:59.250Z,28
2017-05-26T11:11:26.562Z,28.2
2017-05-26T11:12:33.197Z,28.2
2017-05-26T11:14:52.395Z,27.7
2017-05-26T11:15:56.134Z,28.1
2017-05-26T11:16:58.942Z,27.8
2017-05-26T11:18:02.590Z,28
2017-05-26T11:19:10.858Z,27.7
2017-05-26T11:21:27.690Z,28.2
2017-05-26T11:22:30.473Z,27.7
2017-05-26T11:23:38.280Z,27.8
2017-05-26T11:24:43.963Z,28.4
2017-05-26T11:25:47.610Z,28.5
2017-05-26T11:26:52.879Z,28.5
2017-05-26T11:27:58.993Z,27.8
2017-05-26T11:29:04.914Z,27.4
2017-05-26T11:31:22.142Z,28.3
2017-05-26T11:32:26.120Z,28.3
2017-05-26T11:33:30.313Z,27.9
2017-05-26T11:34:34.326Z,27.4
2017-05-26T11:35:39.252Z,27.3
2017-05-26T11:36:51.009Z,27.6
2017-05-26T11:37:55.212Z,28
2017-05-26T11:39:00.122Z,28.6
2017-05-26T11:40:15.398Z,28.8
2017-05-26T11:41:19.680Z,28.7
2017-05-26T11:42:27.094Z,28.9
2017-05-26T11:43:31.222Z,28.7
2017-05-26T11:45:50.197Z,26.6
2017-05-26T11:46:57.816Z,27.5
2017-05-26T11:48:11.841Z,27.5
2017-05-26T11:49:19.625Z,27.9
2017-05-26T11:50:27.506Z,27.5
2017-05-26T11:51:34.857Z,27.9
2017-05-26T11:52:38.879Z,27.1
2017-05-26T11:53:43.055Z,26.8
2017-05-26T11:54:46.971Z,27.4
2017-05-26T11:55:51.752Z,27.1
2017-05-26T11:56:55.684Z,27.5
2017-05-26T11:57:58.305Z,27.4
2017-05-26T11:59:01.104Z,28.2
2017-05-26T12:01:21.473Z,26.7
2017-05-26T12:02:24.262Z,26.8
2017-05-26T12:03:27.730Z,27.1
2017-05-26T12:04:34.618Z,27.5
2017-05-26T12:05:43.943Z,26.3
2017-05-26T12:06:47.701Z,26
2017-05-26T12:07:58.012Z,26.2
2017-05-26T12:09:00.832Z,26
2017-05-26T12:11:18.378Z,26.8
2017-05-26T12:12:21.906Z,27.3
2017-05-26T12:13:25.309Z,26.7
2017-05-26T12:14:29.434Z,27.1
2017-05-26T12:15:33.575Z,26.5
2017-05-26T12:16:38.268Z,26.9
2017-05-26T12:17:42.827Z,26.9
2017-05-26T12:18:47.157Z,26.9
2017-05-26T12:19:53.362Z,26.2
2017-05-26T12:20:56.517Z,25.6
2017-05-26T12:22:01.492Z,26.3
2017-05-26T12:23:09.713Z,26.4
2017-05-26T12:24:12.702Z,26.7
2017-05-26T12:25:18.989Z,26.3
2017-05-26T12:26:22.702Z,26.2
2017-05-26T12:27:25.610Z,26.4
2017-05-26T12:28:31.805Z,26.2
2017-05-26T12:29:44.152Z,26.1
2017-05-26T12:30:50.822Z,26.3
2017-05-26T12:31:57.256Z,26.5
2017-05-26T12:33:05.648Z,26.9
2017-05-26T12:34:14.470Z,26.4
2017-05-26T12:35:24.149Z,26.4
2017-05-26T12:36:29.527Z,26.5
2017-05-26T12:37:44.968Z,26.6
2017-05-26T12:38:47.884Z,27
2017-05-26T12:39:56.098Z,27.1
2017-05-26T12:42:14.368Z,26.7
2017-05-26T12:43:23.147Z,27
2017-05-26T12:44:30.539Z,26.8
2017-05-26T12:46:49.765Z,26.2
2017-05-26T12:47:54.912Z,26.4
2017-05-26T12:49:00.438Z,25.8
2017-05-26T12:51:18.766Z,26.3
2017-05-26T12:52:25.572Z,26.7
2017-05-26T12:53:32.643Z,26.9
2017-05-26T12:54:43.172Z,26.7
2017-05-26T12:55:54.271Z,26.6
2017-05-26T12:57:10.475Z,27.1
2017-05-26T12:59:30.960Z,26.5
2017-05-26T13:00:36.030Z,26.6
2017-05-26T13:03:08.472Z,26.6
2017-05-26T13:04:13.553Z,26.5
2017-05-26T13:05:19.733Z,26.5
2017-05-26T13:06:25.252Z,26.5
2017-05-26T13:07:29.073Z,26.9
2017-05-26T13:08:34.314Z,26.3
2017-05-26T13:09:39.168Z,26.2
2017-05-26T13:10:48.577Z,26.2
2017-05-26T13:11:59.963Z,26.4
2017-05-26T13:13:05.196Z,26.4
2017-05-26T13:14:11.720Z,25.5
2017-05-26T13:15:20.263Z,25.4
2017-05-26T13:16:30.117Z,25
2017-05-26T13:17:35.323Z,25
2017-05-26T13:18:39.718Z,25.3
2017-05-26T13:21:01.393Z,25.4
2017-05-26T13:22:12.531Z,25.8
2017-05-26T13:23:19.917Z,25.8
2017-05-26T13:24:29.963Z,26.1
2017-05-26T13:25:38.220Z,25.7
2017-05-26T13:26:43.520Z,25.7
2017-05-26T13:27:48.343Z,25.8
2017-05-26T13:28:52.619Z,25.9
2017-05-26T13:29:57.325Z,26.1
2017-05-26T13:31:01.135Z,26.1
2017-05-26T13:32:11.768Z,26.1
2017-05-26T13:33:18.154Z,25.9
2017-05-26T13:34:23.035Z,25.2
2017-05-26T13:35:29.050Z,24.8
2017-05-26T13:36:33.752Z,24.6
2017-05-26T13:37:39.010Z,24.8
2017-05-26T13:38:42.896Z,24.4
2017-05-26T13:39:45.556Z,24.7
2017-05-26T13:40:51.507Z,25.3
2017-05-26T13:41:55.398Z,25.6
2017-05-26T13:42:58.898Z,25.9
2017-05-26T13:44:02.250Z,25.9
2017-05-26T13:45:12.052Z,26.2
2017-05-26T13:46:15.913Z,26.3
2017-05-26T13:47:19.526Z,26.5
2017-05-26T13:48:24.507Z,26.4
2017-05-26T13:49:29.323Z,26.6
2017-05-26T13:50:37.844Z,26.5
2017-05-26T13:51:42.964Z,25.8
2017-05-26T13:52:48.722Z,25.8
2017-05-26T13:53:56.885Z,26.3
2017-05-26T13:55:00.263Z,26.5
2017-05-26T13:56:14.291Z,26.4
2017-05-26T13:57:25.147Z,26.3
2017-05-26T13:58:34.969Z,26.5
2017-05-26T13:59:39.666Z,26.5
2017-05-26T14:00:47.750Z,26.4
2017-05-26T14:01:55.888Z,26
2017-05-26T14:02:58.635Z,26.3
2017-05-26T14:04:02.180Z,26.4
2017-05-26T14:05:13.389Z,26.2
2017-05-26T14:06:26.213Z,26.3
2017-05-26T14:07:31.540Z,26.5
2017-05-26T14:08:35.406Z,26.5
2017-05-26T14:09:42.036Z,26.5
2017-05-26T14:10:49.154Z,26.5
2017-05-26T14:11:54.533Z,26.6
2017-05-26T14:13:00.184Z,26.5
2017-05-26T14:14:08.255Z,26.5
2017-05-26T14:15:13.755Z,26.5
2017-05-26T14:16:21.932Z,26.4
2017-05-26T14:17:26.170Z,26.5
2017-05-26T14:18:29.641Z,26.5
2017-05-26T14:19:44.685Z,26.5
2017-05-26T14:20:52.718Z,25.9
2017-05-26T14:21:58.609Z,25.8
2017-05-26T14:23:01.434Z,25.8
2017-05-26T14:25:23.882Z,26.1
2017-05-26T14:26:35.421Z,26.1
2017-05-26T14:27:41.386Z,26.2
2017-05-26T14:28:48.594Z,26.3
2017-05-26T14:29:52.473Z,26.3
2017-05-26T14:30:59.289Z,26.3
2017-05-26T14:32:15.827Z,26.5
2017-05-26T14:33:23.492Z,26.4
2017-05-26T14:34:29.333Z,26.5
2017-05-26T14:35:37.196Z,26.4
2017-05-26T14:36:50.815Z,26.4
2017-05-26T14:37:56.989Z,26.3
2017-05-26T14:39:02.169Z,26.2
2017-05-26T14:41:39.701Z,26
2017-05-26T14:42:44.998Z,26.1
2017-05-26T14:43:49.284Z,25.7
2017-05-26T14:44:52.751Z,25.7
2017-05-26T14:46:04.557Z,25.7
2017-05-26T14:47:13.803Z,25.9
2017-05-26T14:48:19.183Z,25.7
2017-05-26T14:49:27.185Z,25.8